EST,Max TemperatureF,Mean TemperatureF,Min TemperatureF,Max Dew PointF,MeanDew PointF,Min DewpointF,Max Humidity, Mean Humidity, Min Humidity, Max Sea Level PressureIn, Mean Sea Level PressureIn, Min Sea Level PressureIn, Max VisibilityMiles, Mean VisibilityMiles, Min VisibilityMiles, Max Wind SpeedMPH, Mean Wind SpeedMPH, Max Gust SpeedMPH,PrecipitationIn, CloudCover, Events, WindDirDegrees
2012-1-1,53,42,31,46,37,30,100,75,50,30.10,29.92,29.63,10,8,0,22,8,28,0.11,6,Fog-Rain,184
2012-1-2,48,40,31,46,27,16,93,64,34,29.76,29.66,29.58,10,10,10,25,12,31,T,5,Rain,245
2012-1-3,32,22,11,21,6,-8,75,58,40,30.09,29.91,29.75,10,10,9,24,12,33,T,2,Snow,312
2012-1-4,26,17,7,6,0,-6,69,51,32,30.17,30.06,29.93,10,10,10,16,7,22,0.00,3,,260
2012-1-5,38,31,23,19,14,8,58,51,43,29.94,29.87,29.78,10,10,10,23,7,31,0.00,6,,228
2012-1-6,52,40,27,28,24,16,70,53,35,29.93,29.80,29.69,10,10,10,20,7,23,0.00,6,,183
2012-1-7,61,43,25,31,28,23,92,62,31,29.94,29.76,29.66,10,10,10,23,6,30,0.00,2,,271
2012-1-8,43,35,26,27,20,14,70,56,41,30.30,30.15,29.95,10,10,10,20,8,26,0.00,4,,315
2012-1-9,42,32,21,22,15,7,84,53,22,30.31,30.19,29.99,10,10,10,14,5,18,0.00,6,,187
2012-1-10,46,36,26,26,24,22,78,60,42,29.99,29.89,29.81,10,10,10,20,7,32,0.00,5,,242
2012-1-11,45,36,27,29,25,23,78,60,41,30.10,30.04,29.96,10,10,10,14,6,17,0.00,4,,125
2012-1-12,38,36,33,34,33,27,96,80,64,29.96,29.64,29.50,10,6,2,20,9,25,0.96,8,Rain-Snow,4
2012-1-13,45,37,28,39,27,12,100,72,43,29.68,29.41,29.23,10,5,0,35,13,45,0.03,6,Rain,257
2012-1-14,34,25,16,16,11,3,63,50,36,30.08,29.87,29.69,10,10,10,23,11,29,0.00,3,,280
2012-1-15,19,12,5,2,-5,-8,63,48,33,30.56,30.34,30.09,10,10,10,18,10,28,0.00,1,,328
2012-1-16,34,19,4,28,12,-1,92,61,29,30.61,30.37,30.14,10,7,0,21,6,28,0.20,5,Fog-Snow,194
2012-1-17,43,37,31,41,35,29,100,90,79,30.11,29.80,29.49,10,6,2,14,8,17,0.05,8,Rain-Snow,179
2012-1-18,48,33,18,42,17,5,96,66,35,30.17,29.85,29.48,10,10,6,31,15,43,0.00,3,,302
2012-1-19,30,21,11,27,16,4,100,71,42,30.28,30.09,29.94,10,6,0,13,4,15,0.13,5,Fog-Snow,145
2012-1-20,28,23,17,27,12,-1,100,69,37,30.30,30.09,29.92,10,8,0,22,8,28,T,5,Fog-Snow,319
2012-1-21,21,18,14,16,12,5,84,69,54,30.34,30.18,30.08,10,5,0,18,8,22,0.22,7,Snow,1
2012-1-22,29,17,5,19,10,2,80,65,50,30.57,30.51,30.37,10,10,10,12,4,14,0.00,5,,12
2012-1-23,34,30,26,34,27,18,100,88,75,30.47,30.15,29.87,10,6,0,8,2,10,0.21,8,Rain,351
2012-1-24,54,44,33,45,36,26,100,77,54,30.11,29.95,29.87,10,8,0,15,7,20,T,5,Fog,244
2012-1-25,39,36,33,27,24,23,69,62,54,30.26,30.21,30.10,10,10,10,21,9,26,0.00,7,,314
2012-1-26,39,35,31,32,28,25,96,78,59,30.22,30.11,29.92,10,7,1,7,2,8,0.28,7,Rain-Snow,345
2012-1-27,44,39,34,37,35,28,100,81,62,29.90,29.54,29.32,10,4,1,32,9,44,0.77,8,Rain,343
2012-1-28,46,41,35,30,26,23,82,62,41,30.01,29.91,29.78,10,10,10,29,10,37,0.00,4,,224
2012-1-29,42,36,29,18,14,10,59,44,29,30.12,30.05,29.94,10,10,10,21,10,26,0.00,4,,223
2012-1-30,38,31,24,25,16,11,69,52,35,30.29,30.15,29.94,10,10,6,29,10,37,T,4,Snow,289
2012-1-31,56,43,29,32,23,18,69,49,29,30.26,30.08,29.98,10,10,10,17,5,21,0.00,5,,169